X  Close Metar Aviation Weather Data     EGGD Bristol Airport
Temperature
14°C Temperature
12°C Dewpoint
88% Humidity



Wind
12 MPH
19 KM/H
5 M/S
10 KTS



200°
SSW
Current Conditions

Mostly Cloudy Mostly Cloudy
Pressure 1017.92 (hPa) - 30.06 (inHg)
Visibility 6.2 (mile) - 10 (km)
Airport
Airport-code EGGD

Location: Bristol Airport
Distance: 11 (mi)

Metar:
EGGD 270150Z 20010KT 9999 BKN012 OVC0282 14/12 Q1018

Time: 27-10-2021 02:50 BST